createdAt,value
2022-12-01T00:05:56.019Z,0.00
2022-12-01T00:15:56.059Z,0.00
2022-12-01T00:25:56.401Z,0.00
2022-12-01T00:35:56.534Z,0.00
2022-12-01T00:45:56.882Z,0.00
2022-12-01T00:55:57.008Z,0.00
2022-12-01T01:05:57.131Z,0.00
2022-12-01T01:15:57.177Z,0.00
2022-12-01T01:25:57.492Z,0.00
2022-12-01T01:35:57.524Z,0.00
2022-12-01T01:45:57.796Z,0.00
2022-12-01T01:55:57.873Z,0.00
2022-12-01T02:06:01.818Z,0.00
2022-12-01T02:15:59.315Z,0.00
2022-12-01T02:25:58.709Z,0.00
2022-12-01T02:35:58.765Z,0.00
2022-12-01T02:45:59.146Z,0.00
2022-12-01T02:55:59.222Z,0.00
2022-12-01T03:05:59.577Z,0.00
2022-12-01T03:15:59.709Z,0.00
2022-12-01T03:25:59.815Z,0.00
2022-12-01T03:36:00.048Z,0.00
2022-12-01T03:46:00.370Z,0.00
2022-12-01T03:56:00.423Z,0.00
2022-12-01T04:06:00.765Z,0.00
2022-12-01T04:16:00.848Z,0.00
2022-12-01T04:26:00.924Z,0.00
2022-12-01T04:36:00.971Z,0.00
2022-12-01T04:46:01.298Z,0.00
2022-12-01T04:56:01.327Z,0.00
2022-12-01T05:06:01.694Z,0.00
2022-12-01T05:16:01.757Z,12.00
2022-12-01T05:26:01.830Z,0.00
2022-12-01T05:36:02.070Z,0.00
2022-12-01T05:46:02.345Z,0.00
2022-12-01T05:56:02.394Z,0.00
2022-12-01T06:06:02.681Z,0.00
2022-12-01T06:16:02.741Z,0.00
2022-12-01T06:26:08.165Z,12.00
2022-12-01T06:36:03.291Z,4.00
2022-12-01T06:46:03.589Z,4.00
2022-12-01T06:56:03.497Z,8.00
2022-12-01T07:06:03.588Z,16.00
2022-12-01T07:16:03.697Z,24.00
2022-12-01T07:26:03.747Z,32.00
2022-12-01T07:36:03.975Z,48.00
2022-12-01T07:46:04.249Z,56.00
2022-12-01T07:56:08.396Z,68.00
2022-12-01T08:06:04.362Z,68.00
2022-12-01T08:16:04.719Z,76.00
2022-12-01T08:26:04.767Z,80.00
2022-12-01T08:36:05.048Z,112.00
2022-12-01T08:46:05.122Z,140.00
2022-12-01T08:56:08.446Z,164.00
2022-12-01T09:06:05.284Z,200.00
2022-12-01T09:16:05.633Z,216.00
2022-12-01T09:26:08.680Z,224.00
2022-12-01T09:36:06.955Z,260.00
2022-12-01T09:46:06.351Z,296.00
2022-12-01T09:56:12.717Z,348.00
2022-12-01T10:06:26.809Z,284.00
2022-12-01T10:16:07.941Z,272.00
2022-12-01T10:26:07.291Z,188.00
2022-12-01T10:36:07.319Z,168.00
2022-12-01T10:46:07.708Z,156.00
2022-12-01T10:56:07.751Z,188.00
2022-12-01T11:06:08.044Z,148.00
2022-12-01T11:16:08.122Z,188.00
2022-12-01T11:26:08.226Z,224.00
2022-12-01T11:36:11.803Z,184.00
2022-12-01T11:46:09.722Z,212.00
2022-12-01T11:56:08.856Z,172.00
2022-12-01T12:06:38.884Z,120.00
2022-12-01T12:16:09.961Z,120.00
2022-12-01T12:26:10.220Z,140.00
2022-12-01T12:36:09.448Z,172.00
2022-12-01T12:46:09.852Z,156.00
2022-12-01T12:56:09.924Z,144.00
2022-12-01T13:06:10.250Z,116.00
2022-12-01T13:16:10.384Z,112.00
2022-12-01T13:26:10.517Z,96.00
2022-12-01T13:46:11.908Z,60.00
2022-12-01T13:56:10.964Z,52.00
2022-12-01T14:06:11.200Z,40.00
2022-12-01T14:16:14.680Z,36.00
2022-12-01T14:26:11.598Z,28.00
2022-12-01T14:36:12.025Z,28.00
2022-12-01T14:46:12.122Z,28.00
2022-12-01T14:56:12.511Z,20.00
2022-12-01T15:06:12.339Z,16.00
2022-12-01T15:16:12.767Z,12.00
2022-12-01T15:26:12.864Z,4.00
2022-12-01T15:36:15.114Z,0.00
2022-12-01T15:46:13.376Z,4.00
2022-12-01T15:56:13.518Z,12.00
2022-12-01T16:06:13.543Z,0.00
2022-12-01T16:16:15.030Z,0.00
2022-12-01T16:26:14.883Z,0.00
2022-12-01T16:36:15.214Z,12.00
2022-12-01T16:46:14.185Z,12.00
2022-12-01T16:56:15.153Z,12.00
2022-12-01T17:06:14.722Z,12.00
2022-12-01T17:16:18.395Z,12.00
2022-12-01T17:26:14.768Z,12.00
2022-12-01T17:36:15.226Z,12.00
2022-12-01T17:46:15.181Z,12.00
2022-12-01T17:56:15.526Z,12.00
2022-12-01T18:06:15.403Z,12.00
2022-12-01T18:16:15.923Z,12.00
2022-12-01T18:26:16.463Z,12.00
2022-12-01T18:36:16.924Z,12.00
2022-12-01T18:46:17.226Z,12.00
2022-12-01T18:56:17.314Z,12.00
2022-12-01T19:06:16.738Z,12.00
2022-12-01T19:16:17.054Z,12.00
2022-12-01T19:26:17.022Z,12.00
2022-12-01T19:36:17.439Z,12.00
2022-12-01T19:46:17.514Z,12.00
2022-12-01T19:56:21.097Z,12.00
2022-12-01T20:06:17.695Z,12.00
2022-12-01T20:16:17.978Z,12.00
2022-12-01T20:26:19.804Z,12.00
2022-12-01T20:36:18.329Z,12.00
2022-12-01T20:46:18.086Z,12.00
2022-12-01T20:56:18.505Z,12.00
2022-12-01T21:06:18.202Z,12.00
2022-12-01T21:16:18.705Z,12.00
2022-12-01T21:26:18.633Z,12.00
2022-12-01T21:36:18.879Z,12.00
2022-12-01T21:46:19.008Z,12.00
2022-12-01T21:56:19.146Z,12.00
2022-12-01T22:06:29.685Z,0.00
2022-12-01T22:16:20.784Z,0.00
2022-12-01T22:26:23.064Z,0.00
2022-12-01T22:36:20.128Z,0.00
2022-12-01T22:46:20.574Z,0.00
2022-12-01T22:56:20.419Z,0.00
2022-12-01T23:06:21.761Z,0.00
2022-12-01T23:16:20.867Z,0.00
2022-12-01T23:26:21.116Z,0.00
2022-12-01T23:36:21.257Z,0.00
2022-12-01T23:46:22.221Z,0.00
2022-12-01T23:56:21.464Z,0.00
